Time;durP1;ratioP1;P1;durP2;ratioP2;P2;SDS_P1;SDS_P2;PMS_P1;PMS_P2;Temp;Humidity;BMP_temperature;BMP_pressure;BME280_temperature;BME280_humidity;BME280_pressure;Samples;Min_cycle;Max_cycle;Signal;HPM_P1;HPM_P2
2022/05/25 00:01:05;;;;;;;1.83;1.73;;;16.70;99.90;18.00;96354.00;;;;5040227;28;20592;-66
2022/05/25 00:03:56;;;;;;;4.50;1.77;;;16.60;99.90;18.00;96356.00;;;;5034261;28;20213;-67
2022/05/25 00:06:46;;;;;;;2.03;1.40;;;16.70;99.90;18.00;96350.00;;;;5031745;28;20201;-66
2022/05/25 00:09:35;;;;;;;3.27;2.27;;;16.60;99.90;17.90;96351.00;;;;5031624;28;20203;-67
2022/05/25 00:12:24;;;;;;;1.97;1.70;;;16.50;99.90;17.90;96351.00;;;;5026097;28;20371;-66
2022/05/25 00:15:14;;;;;;;3.70;1.73;;;16.40;99.90;17.80;96359.00;;;;5029899;28;20221;-66
2022/05/25 00:18:03;;;;;;;22.53;2.53;;;16.40;99.90;17.80;96356.00;;;;5025048;28;20673;-66
2022/05/25 00:20:53;;;;;;;5.03;1.57;;;16.40;99.90;17.90;96358.00;;;;5022073;28;20205;-67
2022/05/25 00:23:42;;;;;;;6.17;2.00;;;16.60;99.90;17.80;96350.00;;;;5040200;28;20228;-66
2022/05/25 00:26:33;;;;;;;3.07;2.00;;;16.60;99.90;17.80;96355.00;;;;5030387;28;20205;-67
2022/05/25 00:29:22;;;;;;;3.20;1.80;;;16.40;99.90;17.80;96359.00;;;;5031373;28;20204;-67
2022/05/25 00:32:11;;;;;;;2.00;1.90;;;16.60;99.90;17.90;96364.00;;;;5038268;28;20196;-66
2022/05/25 00:34:59;;;;;;;3.60;1.80;;;16.40;99.90;17.90;96360.00;;;;5031907;28;20219;-67
2022/05/25 00:37:50;;;;;;;3.23;1.67;;;16.30;99.90;17.90;96366.00;;;;5024217;28;20211;-66
2022/05/25 00:40:45;;;;;;;2.90;2.10;;;16.50;99.90;17.90;96366.00;;;;5027277;28;20201;-66
2022/05/25 00:43:34;;;;;;;3.00;1.97;;;16.40;99.90;17.90;96382.00;;;;5025670;28;20220;-66
2022/05/25 00:46:24;;;;;;;1.50;1.33;;;16.60;99.90;17.90;96371.00;;;;5038414;28;20196;-67
2022/05/25 00:49:20;;;;;;;1.90;1.50;;;16.60;99.90;17.90;96368.00;;;;5046154;28;20226;-66
2022/05/25 00:52:13;;;;;;;1.80;1.53;;;16.40;99.90;17.90;96364.00;;;;5031051;28;20197;-67
2022/05/25 00:55:07;;;;;;;1.93;1.77;;;16.40;99.90;17.90;96364.00;;;;5031244;28;20228;-67
2022/05/25 00:58:00;;;;;;;3.80;1.60;;;16.30;99.90;17.80;96363.00;;;;5030660;28;20201;-67
2022/05/25 01:00:49;;;;;;;4.53;2.30;;;16.40;99.90;17.90;96365.00;;;;5029013;28;20204;-66
2022/05/25 01:03:38;;;;;;;4.37;2.07;;;16.60;99.90;17.90;96360.00;;;;5035501;28;20235;-67
2022/05/25 01:06:58;;;;;;;2.67;1.83;;;16.30;99.90;17.80;96350.00;;;;5036162;28;20205;-67
2022/05/25 01:10:05;;;;;;;5.53;1.90;;;16.50;99.90;17.90;96348.00;;;;5040570;28;20212;-66
2022/05/25 01:13:12;;;;;;;3.30;2.70;;;16.50;99.90;17.90;96339.00;;;;5048423;28;20221;-66
2022/05/25 01:16:13;;;;;;;5.93;2.67;;;16.40;99.90;17.90;96341.00;;;;5048506;28;20220;-66
2022/05/25 01:19:20;;;;;;;2.50;2.00;;;16.50;99.90;17.90;96352.00;;;;5029629;28;20732;-66
2022/05/25 01:22:28;;;;;;;3.73;1.97;;;16.70;99.90;17.50;96360.00;;;;5024400;28;20208;-66
2022/05/25 01:25:40;;;;;;;9.50;2.40;;;16.20;99.90;17.60;96349.00;;;;5028107;28;20277;-66
2022/05/25 01:28:45;;;;;;;2.80;2.60;;;16.40;99.90;17.70;96346.00;;;;5023439;28;20587;-66
2022/05/25 01:31:42;;;;;;;4.00;1.93;;;16.30;99.90;17.80;96353.00;;;;5026726;28;20547;-67
2022/05/25 01:34:36;;;;;;;1.80;1.70;;;16.20;99.90;17.70;96357.00;;;;5035062;28;20216;-67
2022/05/25 01:37:31;;;;;;;1.57;1.27;;;16.50;99.90;17.80;96356.00;;;;5030879;28;20708;-66
2022/05/25 01:40:29;;;;;;;3.80;1.87;;;16.40;99.90;17.80;96366.00;;;;5037085;28;20204;-66
2022/05/25 01:43:22;;;;;;;6.40;3.80;;;16.30;99.90;17.80;96380.00;;;;5033942;28;20292;-66
2022/05/25 01:46:17;;;;;;;6.30;1.60;;;16.60;99.90;17.80;96385.00;;;;5031151;28;20344;-67
2022/05/25 01:49:13;;;;;;;1.90;1.80;;;16.50;99.90;17.80;96379.00;;;;5030884;28;20204;-67
2022/05/25 01:52:07;;;;;;;3.00;2.03;;;16.20;99.90;17.80;96376.00;;;;5034100;28;20197;-67
2022/05/25 01:55:00;;;;;;;3.50;1.73;;;16.40;99.90;17.70;96385.00;;;;5035474;28;20216;-67
2022/05/25 01:57:54;;;;;;;2.83;1.60;;;16.30;99.90;17.80;96384.00;;;;5031478;28;20198;-66
2022/05/25 02:00:47;;;;;;;4.57;1.73;;;16.20;99.90;17.80;96380.00;;;;5032212;28;20209;-66
2022/05/25 02:07:13;;;;;;;4.83;1.97;;;16.30;99.90;17.10;96457.00;;;;5031907;28;20220;-66
2022/05/25 02:10:20;;;;;;;2.17;1.97;;;16.00;99.90;16.60;96552.00;;;;5031713;28;20201;-68
2022/05/25 02:13:31;;;;;;;1.97;0.90;;;15.90;99.90;15.40;96486.00;;;;5031705;28;20225;-65
2022/05/25 02:16:32;;;;;;;0.60;0.40;;;15.60;99.90;15.00;96495.00;;;;5032011;28;20213;-66
2022/05/25 02:19:24;;;;;;;2.33;0.73;;;;;15.40;96460.00;;;;5028445;28;20204;-69
2022/05/25 02:22:18;;;;;;;5.07;1.10;;;14.90;99.90;15.60;96436.00;;;;5033018;28;20675;-69
2022/05/25 02:25:13;;;;;;;2.73;1.13;;;14.70;99.90;15.60;96407.00;;;;5035175;28;20209;-69
2022/05/25 02:28:09;;;;;;;6.70;1.20;;;14.40;99.90;15.50;96382.00;;;;5029084;28;20193;-69
2022/05/25 02:31:01;;;;;;;4.97;1.17;;;14.40;99.90;15.40;96363.00;;;;5032680;28;20209;-69
2022/05/25 02:33:54;;;;;;;1.87;0.93;;;14.20;99.90;15.00;96328.00;;;;5031832;28;20685;-69
2022/05/25 02:36:44;;;;;;;4.83;0.97;;;14.10;99.90;14.80;96314.00;;;;5033906;28;20204;-67
2022/05/25 02:39:34;;;;;;;3.87;1.00;;;14.20;99.90;14.80;96304.00;;;;5021045;28;20205;-68
2022/05/25 02:42:23;;;;;;;5.20;1.23;;;13.90;99.90;14.80;96333.00;;;;5030398;28;20209;-68
2022/05/25 02:45:13;;;;;;;2.97;1.10;;;13.70;99.90;15.10;96324.00;;;;5035187;28;20205;-68
2022/05/25 02:48:02;;;;;;;1.50;0.73;;;13.80;99.90;15.20;96302.00;;;;5032416;28;20193;-68
2022/05/25 02:50:50;;;;;;;1.50;0.90;;;13.80;99.90;15.20;96316.00;;;;5031200;28;20201;-68
2022/05/25 02:53:39;;;;;;;6.07;1.00;;;13.60;99.90;15.00;96322.00;;;;5032284;28;20227;-68
2022/05/25 02:56:30;;;;;;;0.50;0.50;;;13.90;99.90;15.10;96308.00;;;;5031436;28;20244;-68
2022/05/25 02:59:18;;;;;;;0.93;0.90;;;14.00;99.90;15.00;96302.00;;;;5046354;28;20233;-68
2022/05/25 03:02:07;;;;;;;2.20;1.03;;;13.90;99.90;15.00;96295.00;;;;5037315;28;20691;-69
2022/05/25 03:04:56;;;;;;;1.73;0.80;;;13.70;99.90;14.80;96299.00;;;;5038367;28;20197;-67
2022/05/25 03:07:45;;;;;;;1.27;0.60;;;13.90;99.90;14.50;96323.00;;;;5045018;28;20204;-68
2022/05/25 03:10:34;;;;;;;3.27;1.00;;;13.60;99.90;14.70;96330.00;;;;5030336;28;20212;-68
2022/05/25 03:13:24;;;;;;;5.00;0.97;;;13.60;99.90;14.50;96339.00;;;;5036751;28;20221;-68
2022/05/25 03:16:15;;;;;;;3.00;0.90;;;13.70;99.90;14.60;96337.00;;;;5033337;28;20217;-68
2022/05/25 03:19:04;;;;;;;4.53;1.47;;;13.50;99.90;14.80;96347.00;;;;5031052;28;20676;-68
2022/05/25 03:21:52;;;;;;;4.63;1.00;;;13.60;99.90;14.60;96351.00;;;;5031876;28;20583;-68
2022/05/25 03:24:41;;;;;;;3.43;0.80;;;13.50;99.90;14.50;96352.00;;;;5025166;28;20199;-69
2022/05/25 03:27:30;;;;;;;1.33;1.17;;;13.40;99.90;14.70;96355.00;;;;5029694;28;20572;-68
2022/05/25 03:30:21;;;;;;;1.57;0.90;;;13.60;99.90;14.70;96349.00;;;;5029491;28;20206;-68
2022/05/25 03:33:10;;;;;;;1.80;0.90;;;13.60;99.90;14.50;96368.00;;;;5030488;28;20217;-68
2022/05/25 03:35:59;;;;;;;0.80;0.80;;;13.80;99.90;14.30;96371.00;;;;5033910;28;20224;-68
2022/05/25 03:38:47;;;;;;;1.93;1.00;;;13.40;99.90;14.30;96370.00;;;;5042432;28;20676;-68
2022/05/25 03:41:36;;;;;;;1.07;0.87;;;13.40;99.90;14.30;96389.00;;;;5031693;28;20582;-68
2022/05/25 03:44:25;;;;;;;1.50;1.00;;;13.00;99.90;14.40;96400.00;;;;5026579;28;20226;-68
2022/05/25 03:47:15;;;;;;;1.93;1.10;;;13.20;99.90;14.40;96403.00;;;;5030237;28;20218;-68
2022/05/25 03:50:05;;;;;;;2.63;1.23;;;13.20;99.90;14.50;96410.00;;;;5026603;28;20677;-67
2022/05/25 03:52:54;;;;;;;3.00;0.97;;;13.20;99.90;14.50;96423.00;;;;5030271;28;20232;-67
2022/05/25 03:55:43;;;;;;;2.27;1.13;;;13.30;99.90;14.50;96430.00;;;;5036719;28;20221;-68
2022/05/25 03:58:32;;;;;;;3.03;1.13;;;13.30;99.90;14.60;96438.00;;;;5040935;28;20197;-67
2022/05/25 04:01:21;;;;;;;1.30;1.10;;;13.20;99.90;14.70;96437.00;;;;5031243;28;20209;-68
2022/05/25 04:04:11;;;;;;;1.03;0.87;;;13.40;99.90;14.80;96446.00;;;;5036230;28;20742;-67
2022/05/25 04:07:00;;;;;;;2.03;0.90;;;13.20;99.90;14.80;96452.00;;;;5021823;28;20205;-67
2022/05/25 04:09:49;;;;;;;0.80;0.80;;;13.50;99.90;14.80;96465.00;;;;5028154;28;20212;-68
2022/05/25 04:12:38;;;;;;;1.07;1.07;;;13.60;99.90;14.90;96462.00;;;;5025667;28;20229;-68
2022/05/25 04:15:30;;;;;;;2.67;1.50;;;13.50;99.90;14.70;96465.00;;;;5022323;28;20243;-67
2022/05/25 04:18:19;;;;;;;3.90;1.33;;;13.40;99.90;14.70;96471.00;;;;5024571;28;20216;-68
2022/05/25 04:21:09;;;;;;;2.77;1.30;;;13.60;99.90;14.60;96466.00;;;;5028307;28;20616;-68
2022/05/25 04:23:58;;;;;;;1.00;0.90;;;13.70;99.90;14.80;96471.00;;;;5026178;28;20225;-68
2022/05/25 04:26:47;;;;;;;1.53;1.30;;;13.70;99.90;14.90;96473.00;;;;5028289;28;20209;-67
2022/05/25 04:29:37;;;;;;;1.33;1.00;;;13.60;99.90;14.90;96465.00;;;;5027217;28;20201;-67
2022/05/25 04:32:26;;;;;;;1.47;1.07;;;13.50;99.90;15.30;96455.00;;;;5026711;28;20197;-68
2022/05/25 04:35:17;;;;;;;1.43;1.13;;;13.90;99.90;15.20;96465.00;;;;5028042;28;20677;-68
2022/05/25 04:38:07;;;;;;;4.10;1.30;;;14.00;99.90;15.40;96459.00;;;;5030170;28;20210;-68
2022/05/25 04:40:56;;;;;;;3.57;1.27;;;13.90;99.90;15.50;96458.00;;;;5018928;28;20209;-67
2022/05/25 04:43:47;;;;;;;2.27;1.10;;;13.90;99.90;15.50;96458.00;;;;5031281;28;20240;-67
2022/05/25 04:46:35;;;;;;;1.47;1.00;;;14.00;99.90;15.40;96450.00;;;;5024119;28;20212;-67
2022/05/25 04:49:26;;;;;;;1.57;1.30;;;14.70;99.90;15.30;96459.00;;;;5030780;28;20235;-67
2022/05/25 04:52:15;;;;;;;1.53;1.43;;;14.00;99.90;15.20;96464.00;;;;5032489;28;20209;-67
2022/05/25 04:55:07;;;;;;;1.77;1.27;;;14.20;99.90;15.10;96467.00;;;;5031831;28;21040;-67
2022/05/25 04:57:55;;;;;;;5.13;1.27;;;14.10;99.90;15.10;96464.00;;;;5027877;28;20212;-68
2022/05/25 05:00:44;;;;;;;6.03;1.43;;;14.10;99.90;15.10;96473.00;;;;5028385;28;20209;-68
2022/05/25 05:03:34;;;;;;;1.17;1.07;;;14.00;99.90;15.00;96483.00;;;;5031991;28;20230;-69
2022/05/25 05:06:22;;;;;;;2.57;1.00;;;13.70;99.90;15.30;96475.00;;;;5027848;28;20201;-69
2022/05/25 05:09:11;;;;;;;0.93;0.93;;;14.30;99.90;15.40;96480.00;;;;5030259;28;20228;-68
2022/05/25 05:12:02;;;;;;;3.20;1.70;;;14.20;99.90;15.40;96472.00;;;;5030393;28;20201;-69
2022/05/25 05:14:52;;;;;;;1.40;1.30;;;14.30;99.90;15.30;96477.00;;;;5029380;28;20248;-68
2022/05/25 05:17:41;;;;;;;1.43;1.20;;;14.10;99.90;15.30;96472.00;;;;5030988;28;20228;-69
2022/05/25 05:20:30;;;;;;;1.30;1.20;;;14.30;99.90;15.10;96464.00;;;;5041634;28;20209;-69
2022/05/25 05:23:19;;;;;;;5.47;1.40;;;14.60;99.90;15.40;96464.00;;;;5032280;28;20229;-69
2022/05/25 05:26:08;;;;;;;3.53;2.33;;;14.10;99.90;15.50;96470.00;;;;5029648;28;20201;-69
2022/05/25 05:28:59;;;;;;;3.70;2.40;;;14.30;99.90;15.70;96478.00;;;;5026892;28;20201;-68
2022/05/25 05:31:47;;;;;;;4.20;1.47;;;14.40;99.90;15.70;96475.00;;;;5031358;28;20201;-69
2022/05/25 05:34:36;;;;;;;1.40;0.97;;;14.30;99.90;15.60;96472.00;;;;5030873;28;20220;-69
2022/05/25 05:37:31;;;;;;;2.40;2.20;;;14.40;99.90;15.70;96473.00;;;;5028122;28;20226;-69
2022/05/25 05:40:21;;;;;;;2.73;2.03;;;14.40;99.90;15.80;96474.00;;;;5032444;28;20212;-69
2022/05/25 05:43:12;;;;;;;2.47;1.70;;;14.40;99.90;16.00;96466.00;;;;5026979;28;20240;-69
2022/05/25 05:46:02;;;;;;;2.77;2.03;;;14.50;99.90;16.40;96477.00;;;;5016065;28;20208;-68
2022/05/25 05:48:52;;;;;;;1.97;1.60;;;14.40;99.90;16.50;96465.00;;;;5022503;28;20201;-69
2022/05/25 05:51:41;;;;;;;1.97;1.50;;;15.00;99.90;16.50;96470.00;;;;5012735;28;20202;-69
2022/05/25 05:54:30;;;;;;;2.87;1.43;;;14.80;99.90;16.70;96484.00;;;;5026553;28;20233;-69
2022/05/25 05:57:19;;;;;;;6.47;2.00;;;14.90;99.90;16.80;96485.00;;;;5027072;28;20221;-69
2022/05/25 06:00:13;;;;;;;3.47;1.97;;;14.90;99.90;16.90;96483.00;;;;5020674;28;20205;-69
2022/05/25 06:03:03;;;;;;;5.57;1.80;;;15.00;99.90;16.80;96488.00;;;;5027469;28;20231;-68
2022/05/25 06:05:52;;;;;;;3.50;1.80;;;15.50;99.90;16.50;96493.00;;;;5022003;28;20205;-69
2022/05/25 06:08:42;;;;;;;5.47;1.73;;;15.40;99.90;16.60;96487.00;;;;5029928;28;20579;-68
2022/05/25 06:11:32;;;;;;;1.97;1.70;;;15.50;99.90;17.00;96494.00;;;;5025661;28;20194;-69
2022/05/25 06:14:21;;;;;;;2.67;1.67;;;15.30;99.90;16.80;96504.00;;;;5028095;28;20232;-66
2022/05/25 06:20:17;;;;;;;2.27;1.50;;;15.70;99.90;16.90;96506.00;;;;5026945;28;20582;-66
2022/05/25 06:23:06;;;;;;;2.93;2.00;;;15.60;99.90;17.00;96503.00;;;;5028383;28;20225;-66
2022/05/25 06:25:55;;;;;;;3.87;2.00;;;15.70;99.90;17.10;96506.00;;;;5029912;28;20205;-66
2022/05/25 06:28:44;;;;;;;4.53;2.00;;;15.80;99.90;17.50;96506.00;;;;5029272;28;20208;-66
2022/05/25 06:31:33;;;;;;;2.70;1.70;;;15.80;99.90;17.80;96506.00;;;;5025496;28;20190;-66
2022/05/25 06:34:22;;;;;;;1.53;1.20;;;15.80;99.90;17.70;96512.00;;;;5018313;28;20229;-66
2022/05/25 06:37:17;;;;;;;1.60;1.50;;;16.20;99.90;17.70;96520.00;;;;5025822;28;20847;-66
2022/05/25 06:40:09;;;;;;;2.83;1.00;;;16.10;99.90;17.70;96513.00;;;;5033696;28;20201;-66
2022/05/25 06:42:57;;;;;;;1.83;1.50;;;16.30;99.90;17.70;96520.00;;;;5024997;28;20224;-66
2022/05/25 06:45:46;;;;;;;2.87;1.53;;;16.30;99.90;17.80;96524.00;;;;5027348;28;20206;-66
2022/05/25 06:48:35;;;;;;;1.70;1.43;;;16.20;99.90;17.80;96523.00;;;;5023648;28;20573;-66
2022/05/25 06:51:26;;;;;;;6.93;1.43;;;16.40;99.90;18.00;96523.00;;;;5031680;28;20195;-68
2022/05/25 06:54:19;;;;;;;3.80;1.20;;;16.60;99.90;18.00;96526.00;;;;5029726;28;20229;-67
2022/05/25 06:57:08;;;;;;;2.00;1.40;;;16.60;99.90;18.10;96529.00;;;;5027880;28;20221;-67
2022/05/25 06:59:57;;;;;;;3.90;1.60;;;16.80;99.90;18.30;96523.00;;;;5026571;28;20198;-66
2022/05/25 07:02:46;;;;;;;1.40;1.30;;;16.90;99.90;18.50;96524.00;;;;5028690;28;20704;-66
2022/05/25 07:05:35;;;;;;;3.30;1.67;;;16.80;99.90;19.00;96526.00;;;;5029504;28;20201;-66
2022/05/25 07:08:24;;;;;;;2.43;1.53;;;17.10;99.90;19.20;96526.00;;;;5026379;28;20202;-66
2022/05/25 07:11:14;;;;;;;4.67;1.60;;;17.50;99.90;19.50;96521.00;;;;5024615;28;20209;-66
2022/05/25 07:14:04;;;;;;;3.97;1.40;;;17.70;99.90;19.60;96523.00;;;;5021410;28;20227;-67
2022/05/25 07:16:54;;;;;;;2.93;1.47;;;17.60;99.90;19.80;96525.00;;;;5024560;28;20221;-67
2022/05/25 07:19:43;;;;;;;1.63;1.03;;;17.80;99.90;19.90;96519.00;;;;5024506;28;20200;-66
2022/05/25 07:22:32;;;;;;;4.93;1.20;;;17.90;99.90;20.20;96513.00;;;;5025745;28;20228;-67
2022/05/25 07:25:21;;;;;;;1.70;1.40;;;17.90;99.90;20.30;96508.00;;;;5025493;28;20201;-66
2022/05/25 07:28:11;;;;;;;3.87;1.63;;;18.10;99.90;20.40;96510.00;;;;5024293;28;20208;-67
2022/05/25 07:31:07;;;;;;;3.33;1.17;;;18.70;99.90;20.60;96518.00;;;;5027827;28;20209;-67
2022/05/25 07:34:03;;;;;;;2.40;1.80;;;18.50;99.90;20.60;96526.00;;;;5027432;28;20217;-67
2022/05/25 07:36:55;;;;;;;1.33;1.00;;;18.50;99.90;20.60;96530.00;;;;5024519;28;20208;-67
2022/05/25 07:39:51;;;;;;;3.90;1.10;;;18.80;99.90;20.50;96534.00;;;;5018954;28;20284;-67
2022/05/25 07:42:44;;;;;;;2.70;1.10;;;18.60;99.90;20.40;96535.00;;;;5017721;28;20226;-67
2022/05/25 07:45:35;;;;;;;1.67;1.57;;;18.80;99.90;20.30;96536.00;;;;5020295;28;20566;-67
2022/05/25 07:48:24;;;;;;;2.30;1.43;;;18.80;99.90;20.30;96536.00;;;;5017569;28;20209;-66
2022/05/25 07:51:13;;;;;;;6.37;2.30;;;18.50;99.90;20.20;96530.00;;;;5026530;28;20202;-67
2022/05/25 07:54:03;;;;;;;4.80;2.27;;;18.90;99.90;20.40;96536.00;;;;5023220;28;20221;-66
2022/05/25 07:56:52;;;;;;;4.53;1.90;;;18.70;99.90;20.60;96531.00;;;;5026825;28;20243;-66
2022/05/25 07:59:42;;;;;;;2.40;1.37;;;18.90;99.90;20.80;96537.00;;;;5015963;28;20210;-67
2022/05/25 08:05:48;;;;;;;4.10;1.37;;;19.00;99.90;21.00;96534.00;;;;5028935;28;20212;-66
2022/05/25 08:08:37;;;;;;;2.07;1.27;;;19.30;99.90;21.00;96533.00;;;;5020320;28;20210;-67
2022/05/25 08:11:27;;;;;;;2.93;1.13;;;19.20;99.90;21.00;96542.00;;;;5025622;28;20213;-67
2022/05/25 08:14:16;;;;;;;1.53;1.43;;;19.20;99.90;21.10;96539.00;;;;5021772;28;20229;-66
2022/05/25 08:17:07;;;;;;;4.60;1.13;;;19.30;99.90;21.60;96527.00;;;;5023032;28;20214;-66
2022/05/25 08:19:57;;;;;;;1.47;1.13;;;19.40;99.90;21.90;96520.00;;;;5024331;28;20216;-66
2022/05/25 08:22:47;;;;;;;1.70;1.40;;;19.60;99.90;21.90;96520.00;;;;5019352;28;20233;-66
2022/05/25 08:25:38;;;;;;;1.73;1.60;;;19.70;99.90;22.50;96535.00;;;;5016834;28;20202;-66
2022/05/25 08:28:27;;;;;;;1.87;1.40;;;20.20;99.90;22.30;96541.00;;;;5027648;28;20212;-66
2022/05/25 08:31:17;;;;;;;1.87;1.53;;;20.40;99.90;22.10;96539.00;;;;5011987;28;20232;-67
2022/05/25 08:34:06;;;;;;;1.53;1.40;;;20.40;99.90;22.30;96524.00;;;;5018561;28;20277;-67
2022/05/25 08:36:56;;;;;;;2.10;1.90;;;20.50;99.90;22.40;96534.00;;;;5026035;28;20201;-67
2022/05/25 08:39:45;;;;;;;4.43;2.90;;;20.70;99.90;23.00;96524.00;;;;5020527;28;20598;-67
2022/05/25 08:42:46;;;;;;;3.80;1.90;;;20.70;99.90;23.60;96524.00;;;;5024771;28;20229;-67
2022/05/25 08:45:39;;;;;;;4.17;2.83;;;21.00;99.90;23.70;96518.00;;;;5026100;28;20205;-67
2022/05/25 08:48:29;;;;;;;5.23;3.23;;;21.30;99.90;23.80;96526.00;;;;5016097;28;20684;-67
2022/05/25 08:51:22;;;;;;;5.23;4.73;;;21.70;99.90;23.60;96533.00;;;;5024078;28;20220;-67
2022/05/25 08:54:13;;;;;;;4.87;4.37;;;21.90;99.90;23.70;96532.00;;;;5020924;28;20225;-67
2022/05/25 08:57:05;;;;;;;5.13;4.63;;;21.80;99.90;23.20;96534.00;;;;5024428;28;20214;-67
2022/05/25 09:00:03;;;;;;;8.53;4.77;;;21.70;99.90;24.10;96539.00;;;;5024788;28;20200;-67
2022/05/25 09:03:00;;;;;;;7.73;6.37;;;21.70;99.90;24.10;96523.00;;;;5025199;28;20221;-67
2022/05/25 09:05:56;;;;;;;6.93;5.77;;;21.90;99.90;24.80;96520.00;;;;5026460;28;20308;-67
2022/05/25 09:08:56;;;;;;;7.43;5.53;;;22.10;99.90;24.40;96539.00;;;;5026541;28;20209;-67
2022/05/25 09:11:53;;;;;;;5.93;5.43;;;22.30;99.90;23.70;96545.00;;;;5022063;28;20213;-67
2022/05/25 09:14:48;;;;;;;5.27;4.77;;;22.30;99.90;23.70;96550.00;;;;5013986;28;20213;-67
2022/05/25 09:17:43;;;;;;;6.30;5.33;;;22.20;99.90;24.10;96544.00;;;;5020520;28;20218;-67
2022/05/25 09:20:36;;;;;;;8.90;5.17;;;22.10;99.90;23.70;96529.00;;;;5024392;28;20213;-67
2022/05/25 09:23:25;;;;;;;7.23;4.93;;;22.10;99.90;24.60;96512.00;;;;5027281;28;20221;-67
2022/05/25 09:26:14;;;;;;;5.83;5.23;;;22.40;99.90;25.70;96534.00;;;;5030512;28;20232;-67
2022/05/25 09:29:09;;;;;;;5.57;5.00;;;22.80;99.90;25.10;96532.00;;;;5030885;28;20194;-67
2022/05/25 09:32:09;;;;;;;6.03;5.43;;;22.80;99.90;25.00;96529.00;;;;5025723;28;20205;-67
2022/05/25 09:35:06;;;;;;;6.57;5.97;;;23.00;99.90;24.90;96536.00;;;;5028800;28;20201;-67
2022/05/25 09:37:59;;;;;;;5.07;4.57;;;23.10;99.90;23.70;96537.00;;;;5031542;28;20206;-67
2022/05/25 09:40:52;;;;;;;6.07;5.07;;;22.90;99.90;22.30;96531.00;;;;5026870;28;20194;-67
2022/05/25 09:43:45;;;;;;;6.37;5.10;;;22.30;99.90;22.80;96535.00;;;;5026850;28;20243;-67
2022/05/25 09:46:42;;;;;;;7.67;5.70;;;22.00;99.90;23.60;96537.00;;;;5026371;28;20697;-67
2022/05/25 09:49:38;;;;;;;6.00;5.20;;;21.90;99.90;24.20;96555.00;;;;5028693;28;20209;-67
2022/05/25 09:52:36;;;;;;;5.63;5.13;;;22.10;99.90;24.40;96533.00;;;;5025951;28;20731;-68
2022/05/25 09:55:31;;;;;;;6.83;5.00;;;22.10;99.90;25.00;96525.00;;;;5024906;28;20209;-68
2022/05/25 09:58:33;;;;;;;10.17;6.03;;;22.60;99.90;25.30;96519.00;;;;5029203;28;20619;-67
2022/05/25 10:01:28;;;;;;;8.53;6.70;;;22.90;99.90;24.80;96549.00;;;;5029822;28;20205;-67
2022/05/25 10:04:36;;;;;;;8.87;6.43;;;23.20;99.90;22.70;96556.00;;;;5020305;28;20224;-67
2022/05/25 10:07:32;;;;;;;7.47;5.70;;;22.40;99.90;23.50;96541.00;;;;5025718;28;20220;-67
2022/05/25 10:10:33;;;;;;;14.07;7.67;;;22.20;99.90;24.20;96554.00;;;;5027174;28;20677;-67
2022/05/25 10:13:25;;;;;;;7.73;6.33;;;22.20;99.90;23.50;96547.00;;;;5025729;28;20233;-67
2022/05/25 10:16:24;;;;;;;9.97;6.03;;;22.10;99.90;24.20;96546.00;;;;5029269;28;20228;-67
2022/05/25 10:19:17;;;;;;;6.83;5.97;;;22.40;99.90;24.20;96555.00;;;;5025249;28;20323;-67
2022/05/25 10:22:32;;;;;;;9.70;6.37;;;22.50;99.90;24.30;96537.00;;;;5021959;28;20205;-67
2022/05/25 10:25:29;;;;;;;11.67;6.63;;;22.60;99.90;24.00;96527.00;;;;5023185;28;20209;-67
2022/05/25 10:28:25;;;;;;;10.43;5.87;;;22.40;99.90;24.50;96510.00;;;;5029376;28;20202;-67
2022/05/25 10:37:42;;;;;;;6.57;5.90;;;23.20;99.90;25.60;96504.00;;;;5024849;28;20209;-67
2022/05/25 10:40:33;;;;;;;7.77;5.73;;;23.40;99.90;25.70;96491.00;;;;5029366;28;20236;-68
2022/05/25 10:43:27;;;;;;;8.20;6.73;;;23.50;99.90;25.70;96475.00;;;;5013766;28;20226;-67
2022/05/25 10:46:17;;;;;;;7.20;5.73;;;23.70;99.90;25.30;96468.00;;;;5023075;28;20289;-68
2022/05/25 10:49:17;;;;;;;6.10;5.60;;;23.70;99.90;26.90;96476.00;;;;5025333;28;20285;-68
2022/05/25 10:52:12;;;;;;;5.93;5.33;;;24.30;99.90;26.20;96508.00;;;;5019395;28;20209;-67
2022/05/25 10:55:05;;;;;;;6.57;5.47;;;24.30;99.90;26.80;96510.00;;;;5021832;28;20210;-67
2022/05/25 10:58:14;;;;;;;10.80;6.23;;;24.40;99.90;26.40;96524.00;;;;5026357;28;20201;-67
2022/05/25 11:01:36;;;;;;;11.60;5.73;;;24.60;99.90;25.90;96515.00;;;;5023616;28;20199;-67
2022/05/25 11:04:58;;;;;;;9.40;5.97;;;24.20;99.90;25.60;96519.00;;;;5020334;28;20702;-67
2022/05/25 11:07:48;;;;;;;6.57;5.53;;;24.10;99.90;24.50;96517.00;;;;5024934;28;20216;-67
2022/05/25 11:10:49;;;;;;;9.83;5.87;;;23.70;99.90;24.20;96522.00;;;;5030057;28;20202;-67
2022/05/25 11:14:03;;;;;;;8.67;7.30;;;23.30;99.90;24.70;96518.00;;;;5013903;28;20225;-66
2022/05/25 11:17:00;;;;;;;11.57;6.80;;;23.20;99.90;24.80;96530.00;;;;5028356;28;20217;-67
2022/05/25 11:20:11;;;;;;;7.50;5.20;;;22.90;99.90;25.10;96523.00;;;;5023697;28;20675;-67
2022/05/25 11:23:36;;;;;;;6.63;6.03;;;23.00;99.90;25.00;96535.00;;;;5029002;28;20244;-67
2022/05/25 11:26:47;;;;;;;10.53;6.37;;;23.20;99.90;25.00;96528.00;;;;5023591;28;20676;-66
2022/05/25 11:30:05;;;;;;;7.60;6.83;;;23.20;99.90;24.80;96517.00;;;;5020246;28;20209;-67
2022/05/25 11:33:17;;;;;;;9.40;6.80;;;23.00;99.90;23.70;96520.00;;;;5028363;28;20235;-67
2022/05/25 11:36:28;;;;;;;12.63;6.63;;;22.90;99.90;23.60;96506.00;;;;5029449;28;20620;-67
2022/05/25 11:39:35;;;;;;;11.97;7.57;;;22.60;99.90;23.90;96507.00;;;;5029007;28;20224;-67
2022/05/25 11:42:53;;;;;;;7.70;6.10;;;22.50;99.90;23.60;96521.00;;;;5022804;28;20201;-66
2022/05/25 11:45:56;;;;;;;10.50;7.40;;;22.40;99.90;24.00;96518.00;;;;5018423;28;20711;-67
2022/05/25 11:49:36;;;;;;;6.57;5.97;;;22.40;99.90;24.00;96519.00;;;;5024240;28;20837;-66
2022/05/25 11:53:04;;;;;;;6.83;6.23;;;22.30;99.90;23.70;96526.00;;;;5007153;28;20200;-67
2022/05/25 11:56:05;;;;;;;10.77;6.03;;;22.00;99.90;23.20;96539.00;;;;5023526;28;20201;-67
2022/05/25 11:59:15;;;;;;;11.07;5.00;;;21.90;99.90;23.00;96568.00;;;;5026068;28;20200;-66
2022/05/25 12:02:19;;;;;;;10.17;6.90;;;21.80;99.90;21.50;96614.00;;;;5025149;28;20211;-67
2022/05/25 12:05:20;;;;;;;2.30;1.70;;;21.10;99.90;18.90;96676.00;;;;5020302;28;20856;-63
2022/05/25 12:08:29;;;;;;;5.17;1.63;;;19.80;99.90;17.70;96671.00;;;;5022151;28;20787;-68
2022/05/25 12:11:30;;;;;;;2.50;1.40;;;18.60;99.90;17.60;96657.00;;;;5009541;28;20788;-68
2022/05/25 12:14:50;;;;;;;5.60;1.80;;;17.40;99.90;17.40;96637.00;;;;5018757;28;20225;-70
2022/05/25 12:17:56;;;;;;;4.30;2.13;;;16.70;99.90;17.80;96651.00;;;;5025083;28;20275;-68
2022/05/25 12:20:52;;;;;;;2.40;1.93;;;16.50;99.90;18.40;96629.00;;;;5025172;28;20850;-69
2022/05/25 12:23:51;;;;;;;5.90;2.10;;;16.70;99.90;18.60;96613.00;;;;5022974;28;20228;-69
2022/05/25 12:26:40;;;;;;;7.43;2.60;;;16.60;99.90;19.00;96580.00;;;;5022407;28;20244;-68
2022/05/25 12:29:37;;;;;;;4.47;2.10;;;17.10;99.90;19.30;96602.00;;;;5010488;28;20206;-69
2022/05/25 12:32:29;;;;;;;6.47;1.93;;;17.30;99.90;19.50;96588.00;;;;5023196;28;20201;-69
2022/05/25 12:35:18;;;;;;;4.93;2.10;;;17.50;99.90;21.20;96587.00;;;;5025368;28;20208;-70
2022/05/25 12:38:10;;;;;;;2.80;1.77;;;17.90;99.90;22.00;96540.00;;;;5015640;28;20206;-69
2022/05/25 12:41:41;;;;;;;1.83;1.10;;;18.90;99.90;22.00;96558.00;;;;5024595;28;20225;-70
2022/05/25 12:51:10;;;;;;;4.17;0.70;;;20.70;99.90;23.60;96523.00;;;;5025992;28;20198;-69
2022/05/25 12:54:04;;;;;;;2.13;0.40;;;20.80;99.90;24.70;96516.00;;;;5023436;28;20221;-69
2022/05/25 12:56:56;;;;;;;5.03;2.30;;;21.60;99.90;23.80;96582.00;;;;5029031;28;20193;-69
2022/05/25 12:59:46;;;;;;;1.57;0.80;;;21.60;99.90;24.20;96535.00;;;;5030140;28;20680;-68
2022/05/25 13:02:37;;;;;;;4.77;3.33;;;21.70;99.90;25.20;96535.00;;;;5031632;28;20279;-67
2022/05/25 13:05:53;;;;;;;1.20;0.73;;;22.00;99.90;25.00;96593.00;;;;5032581;28;20198;-67
2022/05/25 13:09:09;;;;;;;1.03;0.80;;;22.50;99.90;24.80;96599.00;;;;5030745;28;20240;-68
2022/05/25 13:12:00;;;;;;;1.10;0.60;;;22.60;99.90;23.60;96621.00;;;;5024476;28;20220;-67
2022/05/25 13:14:58;;;;;;;0.87;0.50;;;22.20;99.90;22.80;96638.00;;;;5027205;28;20204;-66
2022/05/25 13:17:49;;;;;;;2.60;0.80;;;21.60;99.90;22.60;96642.00;;;;5018071;28;20201;-67